createdAt,value
2023-02-16T00:01:54.696Z,23.98
2023-02-16T00:04:24.491Z,20.92
2023-02-16T00:06:52.592Z,22.30
2023-02-16T00:09:20.932Z,23.75
2023-02-16T00:12:07.165Z,23.42
2023-02-16T00:14:35.928Z,22.17
2023-02-16T00:17:03.434Z,21.85
2023-02-16T00:19:36.071Z,26.30
2023-02-16T00:22:03.959Z,26.40
2023-02-16T00:24:30.747Z,23.65
2023-02-16T00:26:58.466Z,29.13
2023-02-16T00:29:29.450Z,26.38
2023-02-16T00:31:57.325Z,28.98
2023-02-16T00:34:36.483Z,24.13
2023-02-16T00:37:06.449Z,23.63
2023-02-16T00:39:34.064Z,23.98
2023-02-16T00:42:21.727Z,34.15
2023-02-16T00:44:50.613Z,26.20
2023-02-16T00:47:25.967Z,31.13
2023-02-16T00:49:54.408Z,29.85
2023-02-16T00:52:37.689Z,23.20
2023-02-16T00:55:08.557Z,30.23
2023-02-16T00:57:40.643Z,35.58
2023-02-16T01:00:16.421Z,24.10
2023-02-16T01:02:45.226Z,34.58
2023-02-16T01:05:12.756Z,24.98
2023-02-16T01:07:58.023Z,30.38
2023-02-16T01:10:45.270Z,28.58
2023-02-16T01:13:12.370Z,30.80
2023-02-16T01:15:39.668Z,29.20
2023-02-16T01:18:06.897Z,26.23
2023-02-16T01:20:36.153Z,29.08
2023-02-16T01:23:03.133Z,36.00
2023-02-16T01:25:30.000Z,28.88
2023-02-16T01:27:56.643Z,32.35
2023-02-16T01:30:25.294Z,33.92
2023-02-16T01:32:52.513Z,38.88
2023-02-16T01:35:25.154Z,25.50
2023-02-16T01:37:51.824Z,26.48
2023-02-16T01:40:33.448Z,35.00
2023-02-16T01:43:32.575Z,31.20
2023-02-16T01:46:07.903Z,36.08
2023-02-16T01:48:35.047Z,30.45
2023-02-16T01:51:13.805Z,30.30
2023-02-16T01:53:45.729Z,26.88
2023-02-16T01:56:35.452Z,32.78
2023-02-16T01:59:10.947Z,33.33
2023-02-16T02:01:44.815Z,34.58
2023-02-16T02:04:40.645Z,31.98
2023-02-16T02:07:08.865Z,23.05
2023-02-16T02:09:45.104Z,29.95
2023-02-16T02:12:14.898Z,32.72
2023-02-16T02:14:42.636Z,33.45
2023-02-16T02:17:14.585Z,30.67
2023-02-16T02:20:05.422Z,37.50
2023-02-16T02:23:24.763Z,35.35
2023-02-16T02:26:06.609Z,30.38
2023-02-16T02:28:59.507Z,26.23
2023-02-16T02:31:44.963Z,30.77
2023-02-16T02:34:29.782Z,33.45
2023-02-16T02:37:05.676Z,31.42
2023-02-16T02:39:50.786Z,28.77
2023-02-16T02:42:33.032Z,31.83
2023-02-16T02:45:08.250Z,31.02
2023-02-16T02:47:40.260Z,34.85
2023-02-16T02:50:32.121Z,28.30
2023-02-16T02:53:03.278Z,27.42
2023-02-16T02:55:51.165Z,28.05
2023-02-16T02:58:40.961Z,23.17
2023-02-16T03:01:08.887Z,33.53
2023-02-16T03:03:42.352Z,26.27
2023-02-16T03:06:19.162Z,29.05
2023-02-16T03:08:49.846Z,26.15
2023-02-16T03:11:39.910Z,29.67
2023-02-16T03:14:17.688Z,25.25
2023-02-16T03:17:11.340Z,26.67
2023-02-16T03:20:01.993Z,29.70
2023-02-16T03:22:48.455Z,31.02
2023-02-16T03:25:34.533Z,31.10
2023-02-16T03:28:22.915Z,32.25
2023-02-16T03:30:51.340Z,33.08
2023-02-16T03:33:18.717Z,29.38
2023-02-16T03:35:46.324Z,27.30
2023-02-16T03:38:13.188Z,30.48
2023-02-16T03:40:41.362Z,22.25
2023-02-16T03:43:08.982Z,24.73
2023-02-16T03:45:39.709Z,36.30
2023-02-16T03:48:06.988Z,30.50
2023-02-16T03:50:33.811Z,29.45
2023-02-16T03:53:09.579Z,30.23
2023-02-16T03:55:44.174Z,26.80
2023-02-16T03:58:13.505Z,31.40
2023-02-16T04:00:40.578Z,30.85
2023-02-16T04:03:11.166Z,30.70
2023-02-16T04:05:38.598Z,32.72
2023-02-16T04:08:06.194Z,28.77
2023-02-16T04:10:33.085Z,28.58
2023-02-16T04:13:00.255Z,30.15
2023-02-16T04:15:28.879Z,35.70
2023-02-16T04:17:56.145Z,33.85
2023-02-16T04:20:27.593Z,29.98
2023-02-16T04:22:54.409Z,26.98
2023-02-16T04:25:30.496Z,35.42
2023-02-16T04:27:57.405Z,31.75
2023-02-16T04:30:27.919Z,38.05
2023-02-16T04:32:55.142Z,28.85
2023-02-16T04:35:23.065Z,26.98
2023-02-16T04:37:49.888Z,27.92
2023-02-16T04:40:17.589Z,27.58
2023-02-16T04:42:45.522Z,27.00
2023-02-16T04:45:13.278Z,37.92
2023-02-16T04:47:40.067Z,26.33
2023-02-16T04:50:07.728Z,33.88
2023-02-16T04:52:34.459Z,28.52
2023-02-16T04:55:01.111Z,29.42
2023-02-16T04:57:28.175Z,35.65
2023-02-16T04:59:55.236Z,28.80
2023-02-16T05:02:22.359Z,34.78
2023-02-16T05:04:49.138Z,30.05
2023-02-16T05:07:16.083Z,31.52
2023-02-16T05:09:42.709Z,40.22
2023-02-16T05:12:31.343Z,28.52
2023-02-16T05:14:57.968Z,37.65
2023-02-16T05:17:26.689Z,35.55
2023-02-16T05:20:01.731Z,36.05
2023-02-16T05:22:28.963Z,31.90
2023-02-16T05:24:55.659Z,28.83
2023-02-16T05:27:24.833Z,27.40
2023-02-16T05:29:51.796Z,35.00
2023-02-16T05:32:18.868Z,29.05
2023-02-16T05:34:45.677Z,28.52
2023-02-16T05:37:14.555Z,29.10
2023-02-16T05:39:41.417Z,26.30
2023-02-16T05:42:08.351Z,33.53
2023-02-16T05:44:35.010Z,28.50
2023-02-16T05:47:01.977Z,28.83
2023-02-16T05:49:28.815Z,24.65
2023-02-16T05:51:55.612Z,27.63
2023-02-16T05:54:22.393Z,34.30
2023-02-16T05:56:52.221Z,34.58
2023-02-16T05:59:19.576Z,27.58
2023-02-16T06:01:50.967Z,27.90
2023-02-16T06:04:18.476Z,32.33
2023-02-16T06:06:45.189Z,33.90
2023-02-16T06:09:12.062Z,28.85
2023-02-16T06:11:38.856Z,26.50
2023-02-16T06:14:18.123Z,27.90
2023-02-16T06:16:47.742Z,32.72
2023-02-16T06:19:17.458Z,31.05
2023-02-16T06:21:44.369Z,29.80
2023-02-16T06:24:12.867Z,24.73
2023-02-16T06:26:39.728Z,25.60
2023-02-16T06:29:06.628Z,25.92
2023-02-16T06:31:36.260Z,29.67
2023-02-16T06:34:04.181Z,28.98
2023-02-16T06:36:31.344Z,26.60
2023-02-16T06:38:58.125Z,38.42
2023-02-16T06:41:57.005Z,31.42
2023-02-16T06:44:23.825Z,25.92
2023-02-16T06:46:50.589Z,32.25
2023-02-16T06:49:19.837Z,34.78
2023-02-16T06:51:48.300Z,29.35
2023-02-16T06:54:15.946Z,30.83
2023-02-16T06:56:42.632Z,30.17
2023-02-16T06:59:12.861Z,36.50
2023-02-16T07:01:39.748Z,28.42
2023-02-16T07:04:06.405Z,26.08
2023-02-16T07:06:33.027Z,40.25
2023-02-16T07:09:00.218Z,27.38
2023-02-16T07:11:26.850Z,33.25
2023-02-16T07:13:54.255Z,28.98
2023-02-16T07:16:21.652Z,36.00
2023-02-16T07:18:48.658Z,36.88
2023-02-16T07:21:15.631Z,30.75
2023-02-16T07:23:42.368Z,35.70
2023-02-16T07:26:09.783Z,34.58
2023-02-16T07:28:36.480Z,34.70
2023-02-16T07:31:08.454Z,39.92
2023-02-16T07:33:35.273Z,31.40
2023-02-16T07:36:02.094Z,32.75
2023-02-16T07:38:32.746Z,33.22
2023-02-16T07:40:59.808Z,36.13
2023-02-16T07:43:27.026Z,34.90
2023-02-16T07:45:54.277Z,34.22
2023-02-16T07:48:21.014Z,31.15
2023-02-16T07:50:48.990Z,33.00
2023-02-16T07:53:18.821Z,40.28
2023-02-16T07:55:46.605Z,32.67
2023-02-16T07:58:27.628Z,37.88
2023-02-16T08:01:13.505Z,39.60
2023-02-16T08:03:41.653Z,38.72
2023-02-16T08:06:09.015Z,24.88
2023-02-16T08:08:37.187Z,29.98
2023-02-16T08:11:23.822Z,40.85
2023-02-16T08:13:51.717Z,33.92
2023-02-16T08:16:23.866Z,37.72
2023-02-16T08:18:51.244Z,32.10
2023-02-16T08:21:23.768Z,36.40
2023-02-16T08:24:06.477Z,42.30
2023-02-16T08:26:44.892Z,39.70
2023-02-16T08:29:13.423Z,34.00
2023-02-16T08:31:41.821Z,38.45
2023-02-16T08:34:11.064Z,40.58
2023-02-16T08:36:40.296Z,37.42
2023-02-16T08:39:17.189Z,31.40
2023-02-16T08:41:45.791Z,37.38
2023-02-16T08:44:13.860Z,37.05
2023-02-16T08:46:42.990Z,38.88
2023-02-16T08:49:11.409Z,37.67
2023-02-16T08:51:42.601Z,36.55
2023-02-16T08:54:10.207Z,38.80
2023-02-16T08:56:37.150Z,40.78
2023-02-16T08:59:03.916Z,37.78
2023-02-16T09:01:32.925Z,37.88
2023-02-16T09:03:59.798Z,45.08
2023-02-16T09:06:26.754Z,36.90
2023-02-16T09:08:55.553Z,37.67
2023-02-16T09:11:24.018Z,39.72
2023-02-16T09:13:51.376Z,38.88
2023-02-16T09:16:22.428Z,36.80
2023-02-16T09:18:49.738Z,39.05
2023-02-16T09:21:24.856Z,42.15
2023-02-16T09:23:54.398Z,44.88
2023-02-16T09:26:23.800Z,39.58
2023-02-16T09:28:51.364Z,32.97
2023-02-16T09:31:25.561Z,41.88
2023-02-16T09:33:56.231Z,35.05
2023-02-16T09:36:24.614Z,40.60
2023-02-16T09:38:52.680Z,38.33
2023-02-16T09:41:45.981Z,41.80
2023-02-16T09:44:33.666Z,41.65
2023-02-16T09:47:05.025Z,44.38
2023-02-16T09:49:41.441Z,43.72
2023-02-16T09:52:37.225Z,48.92
2023-02-16T09:55:18.949Z,40.65
2023-02-16T09:58:04.376Z,46.33
2023-02-16T10:00:34.233Z,40.90
2023-02-16T10:03:03.591Z,37.65
2023-02-16T10:05:44.884Z,51.20
2023-02-16T10:08:16.795Z,45.08
2023-02-16T10:10:53.459Z,38.22
2023-02-16T10:13:34.858Z,44.03
2023-02-16T10:16:05.697Z,42.00
2023-02-16T10:18:38.404Z,36.78
2023-02-16T10:21:16.272Z,46.13
2023-02-16T10:23:55.637Z,46.72
2023-02-16T10:26:32.019Z,44.97
2023-02-16T10:29:05.883Z,41.83
2023-02-16T10:31:51.064Z,45.42
2023-02-16T10:34:43.023Z,46.10
2023-02-16T10:37:25.546Z,47.15
2023-02-16T10:39:58.883Z,38.30
2023-02-16T10:42:37.294Z,43.40
2023-02-16T10:45:27.536Z,42.03
2023-02-16T10:47:55.051Z,36.50
2023-02-16T10:50:23.262Z,44.03
2023-02-16T10:52:52.399Z,47.40
2023-02-16T10:55:19.053Z,39.47
2023-02-16T10:57:56.523Z,34.35
2023-02-16T11:00:52.412Z,41.75
2023-02-16T11:03:23.109Z,44.13
2023-02-16T11:05:50.069Z,40.60
2023-02-16T11:08:17.694Z,40.88
2023-02-16T11:10:52.697Z,40.28
2023-02-16T11:13:28.305Z,46.05
2023-02-16T11:15:58.362Z,40.92
2023-02-16T11:18:47.133Z,50.92
2023-02-16T11:21:14.217Z,44.92
2023-02-16T11:23:57.750Z,39.92
2023-02-16T11:26:26.957Z,42.15
2023-02-16T11:28:53.844Z,43.40
2023-02-16T11:31:36.072Z,45.83
2023-02-16T11:34:06.515Z,48.35
2023-02-16T11:36:34.785Z,47.45
2023-02-16T11:39:06.013Z,40.97
2023-02-16T11:41:33.585Z,47.28
2023-02-16T11:44:02.707Z,48.35
2023-02-16T11:46:39.843Z,48.75
2023-02-16T11:49:30.204Z,46.05
2023-02-16T11:51:58.477Z,52.22
2023-02-16T11:54:25.350Z,43.08
2023-02-16T11:57:09.568Z,46.05
2023-02-16T11:59:38.822Z,47.03
2023-02-16T12:02:29.694Z,45.55
2023-02-16T12:05:02.441Z,53.15
2023-02-16T12:07:32.432Z,43.55
2023-02-16T12:10:12.102Z,46.85
2023-02-16T12:13:03.691Z,46.97
2023-02-16T12:15:54.927Z,40.78
2023-02-16T12:18:37.664Z,48.75
2023-02-16T12:21:35.995Z,48.05
2023-02-16T12:24:35.023Z,50.15
2023-02-16T12:27:07.305Z,46.63
2023-02-16T12:30:03.693Z,45.63
2023-02-16T12:32:37.694Z,52.45
2023-02-16T12:35:20.014Z,50.45
2023-02-16T12:37:55.554Z,60.70
2023-02-16T12:40:46.944Z,51.58
2023-02-16T12:43:40.077Z,53.05
2023-02-16T12:46:18.802Z,52.60
2023-02-16T12:48:49.328Z,46.33
2023-02-16T12:51:23.678Z,51.92
2023-02-16T12:54:14.635Z,51.15
2023-02-16T12:56:52.406Z,55.85
2023-02-16T12:59:39.074Z,54.72
2023-02-16T13:02:15.882Z,52.42
2023-02-16T13:05:13.645Z,58.83
2023-02-16T13:07:43.488Z,65.47
2023-02-16T13:10:32.881Z,51.00
2023-02-16T13:13:04.850Z,53.22
2023-02-16T13:15:34.162Z,57.45
2023-02-16T13:18:06.756Z,64.35
2023-02-16T13:20:33.713Z,61.28
2023-02-16T13:23:03.230Z,63.95
2023-02-16T13:25:49.619Z,62.75
2023-02-16T13:28:42.908Z,65.00
2023-02-16T13:31:29.314Z,66.05
2023-02-16T13:34:13.798Z,60.95
2023-02-16T13:37:17.959Z,50.63
2023-02-16T13:40:04.805Z,58.45
2023-02-16T13:42:54.020Z,59.33
2023-02-16T13:45:32.381Z,59.75
2023-02-16T13:48:00.281Z,53.47
2023-02-16T13:50:29.227Z,63.92
2023-02-16T13:52:58.577Z,53.28
2023-02-16T13:55:34.770Z,64.78
2023-02-16T13:58:04.399Z,64.43
2023-02-16T14:00:35.725Z,57.22
2023-02-16T14:03:13.311Z,60.72
2023-02-16T14:05:42.598Z,59.55
2023-02-16T14:08:25.496Z,59.38
2023-02-16T14:10:55.498Z,60.33
2023-02-16T14:13:37.761Z,58.95
2023-02-16T14:16:11.642Z,51.67
2023-02-16T14:18:57.147Z,55.90
2023-02-16T14:21:47.958Z,63.60
2023-02-16T14:24:36.135Z,61.60
2023-02-16T14:27:10.625Z,65.03
2023-02-16T14:29:56.718Z,64.40
2023-02-16T14:32:38.530Z,55.38
2023-02-16T14:35:13.690Z,62.25
2023-02-16T14:37:53.180Z,62.78
2023-02-16T14:40:40.280Z,64.63
2023-02-16T14:43:20.385Z,56.50
2023-02-16T14:45:58.996Z,58.33
2023-02-16T14:48:50.540Z,63.22
2023-02-16T14:51:35.005Z,59.92
2023-02-16T14:54:27.027Z,59.17
2023-02-16T14:57:14.751Z,57.28
2023-02-16T15:00:04.390Z,63.78
2023-02-16T15:02:38.307Z,65.85
2023-02-16T15:05:33.086Z,62.25
2023-02-16T15:08:17.493Z,57.55
2023-02-16T15:10:47.449Z,67.05
2023-02-16T15:13:22.716Z,64.93
2023-02-16T15:15:58.591Z,59.00
2023-02-16T15:18:40.621Z,65.40
2023-02-16T15:21:20.722Z,59.33
2023-02-16T15:23:50.581Z,57.08
2023-02-16T15:26:28.174Z,65.55
2023-02-16T15:29:19.222Z,60.78
2023-02-16T15:31:47.536Z,66.78
2023-02-16T15:34:29.078Z,83.68
2023-02-16T15:36:55.968Z,61.50
2023-02-16T15:39:42.987Z,64.35
2023-02-16T15:42:23.623Z,64.25
2023-02-16T15:44:50.757Z,71.15
2023-02-16T15:47:23.291Z,67.55
2023-02-16T15:49:51.978Z,67.22
2023-02-16T15:52:21.822Z,61.08
2023-02-16T15:54:49.673Z,69.05
2023-02-16T15:57:37.169Z,60.47
2023-02-16T16:00:21.920Z,70.50
2023-02-16T16:02:51.508Z,67.28
2023-02-16T16:05:22.776Z,63.15
2023-02-16T16:07:50.107Z,68.40
2023-02-16T16:10:36.231Z,60.17
2023-02-16T16:13:12.689Z,57.05
2023-02-16T16:15:45.114Z,71.03
2023-02-16T16:18:39.989Z,65.70
2023-02-16T16:21:34.220Z,58.05
2023-02-16T16:24:05.743Z,53.72
2023-02-16T16:26:59.769Z,70.78
2023-02-16T16:30:09.824Z,61.38
2023-02-16T16:32:38.544Z,60.90
2023-02-16T16:35:40.850Z,61.45
2023-02-16T16:38:29.430Z,59.85
2023-02-16T16:40:59.078Z,60.88
2023-02-16T16:43:31.932Z,53.72
2023-02-16T16:46:17.442Z,59.88
2023-02-16T16:48:47.461Z,62.17
2023-02-16T16:51:41.320Z,68.40
2023-02-16T16:54:33.229Z,54.78
2023-02-16T16:57:00.125Z,57.85
2023-02-16T16:59:28.646Z,63.42
2023-02-16T17:01:55.356Z,64.30
2023-02-16T17:04:23.856Z,56.75
2023-02-16T17:06:50.574Z,53.10
2023-02-16T17:09:17.501Z,58.17
2023-02-16T17:11:44.507Z,61.30
2023-02-16T17:14:20.234Z,54.72
2023-02-16T17:16:54.467Z,53.55
2023-02-16T17:19:27.529Z,61.33
2023-02-16T17:21:54.830Z,55.10
2023-02-16T17:24:21.910Z,58.40
2023-02-16T17:26:52.728Z,66.82
2023-02-16T17:29:19.477Z,61.53
2023-02-16T17:31:49.451Z,66.43
2023-02-16T17:34:16.331Z,62.38
2023-02-16T17:36:43.112Z,64.03
2023-02-16T17:39:09.740Z,68.60
2023-02-16T17:41:36.445Z,67.45
2023-02-16T17:44:04.180Z,70.88
2023-02-16T17:46:31.865Z,63.78
2023-02-16T17:48:58.750Z,56.88
2023-02-16T17:51:26.397Z,63.65
2023-02-16T17:53:53.582Z,52.17
2023-02-16T17:56:23.279Z,69.22
2023-02-16T17:58:50.097Z,66.32
2023-02-16T18:01:18.284Z,63.03
2023-02-16T18:03:46.054Z,56.65
2023-02-16T18:06:18.258Z,67.65
2023-02-16T18:08:45.141Z,50.70
2023-02-16T18:11:12.402Z,64.72
2023-02-16T18:13:39.769Z,60.00
2023-02-16T18:16:08.272Z,63.17
2023-02-16T18:18:38.862Z,57.65
2023-02-16T18:21:06.433Z,60.80
2023-02-16T18:23:33.407Z,67.53
2023-02-16T18:26:00.146Z,63.33
2023-02-16T18:28:30.911Z,55.65
2023-02-16T18:31:00.455Z,58.17
2023-02-16T18:33:27.295Z,59.40
2023-02-16T18:35:56.318Z,56.70
2023-02-16T18:38:23.428Z,60.90
2023-02-16T18:40:51.538Z,65.28
2023-02-16T18:43:18.211Z,58.50
2023-02-16T18:45:45.098Z,57.03
2023-02-16T18:48:11.985Z,60.50
2023-02-16T18:50:38.878Z,60.22
2023-02-16T18:53:06.168Z,59.28
2023-02-16T18:55:33.084Z,52.42
2023-02-16T18:58:00.868Z,56.97
2023-02-16T19:00:28.681Z,59.50
2023-02-16T19:02:56.871Z,53.90
2023-02-16T19:05:24.709Z,62.15
2023-02-16T19:07:51.772Z,58.90
2023-02-16T19:10:19.724Z,51.72
2023-02-16T19:12:46.376Z,54.83
2023-02-16T19:15:13.843Z,60.58
2023-02-16T19:17:40.640Z,52.65
2023-02-16T19:20:09.936Z,48.20
2023-02-16T19:22:37.248Z,61.88
2023-02-16T19:25:07.870Z,62.63
2023-02-16T19:27:34.985Z,54.47
2023-02-16T19:30:01.898Z,55.63
2023-02-16T19:32:29.079Z,56.53
2023-02-16T19:34:56.428Z,56.60
2023-02-16T19:37:23.112Z,51.20
2023-02-16T19:39:49.912Z,52.55
2023-02-16T19:42:17.922Z,54.70
2023-02-16T19:44:44.660Z,54.15
2023-02-16T19:47:11.578Z,53.00
2023-02-16T19:49:38.628Z,58.22
2023-02-16T19:52:07.524Z,54.22
2023-02-16T19:54:36.798Z,51.65
2023-02-16T19:57:07.048Z,47.85
2023-02-16T19:59:33.878Z,51.47
2023-02-16T20:02:01.246Z,51.42
2023-02-16T20:04:28.660Z,52.15
2023-02-16T20:06:56.347Z,47.30
2023-02-16T20:09:26.867Z,47.63
2023-02-16T20:11:53.688Z,48.85
2023-02-16T20:14:20.595Z,54.50
2023-02-16T20:16:49.468Z,55.35
2023-02-16T20:19:17.761Z,64.30
2023-02-16T20:21:46.345Z,64.90
2023-02-16T20:24:14.676Z,53.33
2023-02-16T20:26:45.015Z,67.60
2023-02-16T20:29:15.047Z,60.33
2023-02-16T20:31:47.734Z,54.00
2023-02-16T20:34:15.056Z,54.92
2023-02-16T20:36:43.282Z,59.80
2023-02-16T20:39:10.111Z,58.10
2023-02-16T20:41:37.218Z,46.10
2023-02-16T20:44:04.673Z,55.95
2023-02-16T20:46:32.244Z,47.60
2023-02-16T20:48:58.930Z,54.10
2023-02-16T20:51:26.153Z,58.20
2023-02-16T20:53:52.821Z,55.65
2023-02-16T20:56:22.000Z,56.70
2023-02-16T20:58:50.447Z,49.15
2023-02-16T21:01:26.163Z,59.03
2023-02-16T21:03:54.772Z,52.08
2023-02-16T21:06:22.064Z,49.78
2023-02-16T21:08:48.952Z,50.63
2023-02-16T21:11:16.267Z,47.63
2023-02-16T21:13:43.945Z,58.00
2023-02-16T21:16:13.159Z,47.67
2023-02-16T21:18:43.772Z,49.72
2023-02-16T21:21:15.332Z,58.50
2023-02-16T21:23:44.549Z,53.22
2023-02-16T21:26:11.864Z,58.55
2023-02-16T21:28:39.181Z,51.53
2023-02-16T21:31:09.766Z,46.53
2023-02-16T21:33:37.563Z,52.53
2023-02-16T21:36:07.481Z,53.90
2023-02-16T21:38:35.897Z,51.00
2023-02-16T21:41:25.948Z,53.03
2023-02-16T21:44:13.770Z,52.58
2023-02-16T21:46:45.589Z,48.70
2023-02-16T21:49:17.818Z,55.42
2023-02-16T21:51:45.708Z,55.95
2023-02-16T21:54:16.143Z,53.30
2023-02-16T21:56:51.022Z,48.65
2023-02-16T21:59:19.654Z,52.00
2023-02-16T22:01:51.691Z,53.13
2023-02-16T22:04:21.950Z,58.50
2023-02-16T22:06:50.698Z,50.83
2023-02-16T22:09:20.717Z,54.60
2023-02-16T22:11:50.635Z,47.35
2023-02-16T22:14:18.235Z,47.13
2023-02-16T22:16:46.849Z,46.17
2023-02-16T22:19:15.806Z,48.83
2023-02-16T22:21:46.624Z,49.80
2023-02-16T22:24:14.992Z,48.78
2023-02-16T22:26:42.516Z,47.15
2023-02-16T22:29:11.881Z,49.83
2023-02-16T22:31:39.140Z,46.65
2023-02-16T22:34:10.323Z,46.20
2023-02-16T22:36:38.964Z,49.40
2023-02-16T22:39:06.290Z,48.28
2023-02-16T22:41:33.489Z,52.33
2023-02-16T22:44:00.226Z,48.63
2023-02-16T22:46:28.297Z,48.15
2023-02-16T22:48:58.717Z,43.50
2023-02-16T22:51:28.986Z,47.65
2023-02-16T22:53:57.807Z,53.40
2023-02-16T22:56:24.461Z,44.55
2023-02-16T22:58:51.051Z,47.97
2023-02-16T23:01:20.482Z,45.83
2023-02-16T23:03:57.247Z,53.75
2023-02-16T23:06:35.709Z,50.25
2023-02-16T23:09:08.213Z,56.35
2023-02-16T23:11:36.346Z,59.40
2023-02-16T23:14:03.437Z,49.75
2023-02-16T23:16:30.084Z,47.85
2023-02-16T23:18:59.133Z,59.42
2023-02-16T23:21:28.464Z,51.05
2023-02-16T23:23:55.868Z,52.08
2023-02-16T23:26:25.918Z,64.88
2023-02-16T23:28:55.108Z,62.78
2023-02-16T23:31:23.217Z,53.72
2023-02-16T23:33:50.657Z,47.38
2023-02-16T23:36:17.390Z,49.95
2023-02-16T23:38:44.324Z,54.47
2023-02-16T23:41:12.982Z,52.60
2023-02-16T23:43:39.822Z,53.80
2023-02-16T23:46:07.175Z,50.15
2023-02-16T23:48:34.832Z,54.40
2023-02-16T23:59:49.019Z,50.60
